sensor_id;sensor_type;location;lat;lon;timestamp;P1;durP1;ratioP1;P2;durP2;ratioP2
22160;SDS011;49035;48.812;11.762;2023-02-12T00:01:29;40.50;;;21.77;;
22160;SDS011;49035;48.812;11.762;2023-02-12T00:03:55;35.93;;;21.43;;
22160;SDS011;49035;48.812;11.762;2023-02-12T00:06:21;38.57;;;22.47;;
22160;SDS011;49035;48.812;11.762;2023-02-12T00:08:50;39.27;;;23.13;;
22160;SDS011;49035;48.812;11.762;2023-02-12T00:11:18;38.87;;;22.13;;
22160;SDS011;49035;48.812;11.762;2023-02-12T00:13:45;40.43;;;22.50;;
22160;SDS011;49035;48.812;11.762;2023-02-12T00:16:15;35.13;;;21.30;;
22160;SDS011;49035;48.812;11.762;2023-02-12T00:18:43;34.47;;;20.97;;
22160;SDS011;49035;48.812;11.762;2023-02-12T00:21:09;36.63;;;20.77;;
22160;SDS011;49035;48.812;11.762;2023-02-12T00:23:36;34.80;;;20.50;;
22160;SDS011;49035;48.812;11.762;2023-02-12T00:26:15;42.10;;;22.90;;
22160;SDS011;49035;48.812;11.762;2023-02-12T00:28:43;41.63;;;22.63;;
22160;SDS011;49035;48.812;11.762;2023-02-12T00:31:11;37.33;;;22.23;;
22160;SDS011;49035;48.812;11.762;2023-02-12T00:33:38;36.53;;;21.80;;
22160;SDS011;49035;48.812;11.762;2023-02-12T00:36:04;35.33;;;21.40;;
22160;SDS011;49035;48.812;11.762;2023-02-12T00:38:31;39.03;;;21.63;;
22160;SDS011;49035;48.812;11.762;2023-02-12T00:40:56;33.73;;;19.97;;
22160;SDS011;49035;48.812;11.762;2023-02-12T00:43:22;38.00;;;21.37;;
22160;SDS011;49035;48.812;11.762;2023-02-12T00:45:47;37.50;;;20.43;;
22160;SDS011;49035;48.812;11.762;2023-02-12T00:48:13;34.57;;;20.87;;
22160;SDS011;49035;48.812;11.762;2023-02-12T00:50:40;35.83;;;21.10;;
22160;SDS011;49035;48.812;11.762;2023-02-12T00:53:08;38.27;;;20.90;;
22160;SDS011;49035;48.812;11.762;2023-02-12T00:55:33;36.47;;;20.23;;
22160;SDS011;49035;48.812;11.762;2023-02-12T00:57:59;34.63;;;21.03;;
22160;SDS011;49035;48.812;11.762;2023-02-12T01:00:25;39.53;;;22.17;;
22160;SDS011;49035;48.812;11.762;2023-02-12T01:02:51;40.23;;;21.27;;
22160;SDS011;49035;48.812;11.762;2023-02-12T01:05:16;36.73;;;20.93;;
22160;SDS011;49035;48.812;11.762;2023-02-12T01:07:43;34.50;;;20.70;;
22160;SDS011;49035;48.812;11.762;2023-02-12T01:10:13;33.30;;;20.57;;
22160;SDS011;49035;48.812;11.762;2023-02-12T01:12:39;35.03;;;20.77;;
22160;SDS011;49035;48.812;11.762;2023-02-12T01:15:04;37.83;;;21.10;;
22160;SDS011;49035;48.812;11.762;2023-02-12T01:17:30;33.70;;;20.40;;
22160;SDS011;49035;48.812;11.762;2023-02-12T01:19:56;37.53;;;19.87;;
22160;SDS011;49035;48.812;11.762;2023-02-12T01:22:23;36.43;;;20.43;;
22160;SDS011;49035;48.812;11.762;2023-02-12T01:24:49;37.03;;;20.77;;
22160;SDS011;49035;48.812;11.762;2023-02-12T01:27:14;37.40;;;21.13;;
22160;SDS011;49035;48.812;11.762;2023-02-12T01:29:40;36.43;;;20.23;;
22160;SDS011;49035;48.812;11.762;2023-02-12T01:32:08;38.20;;;21.63;;
22160;SDS011;49035;48.812;11.762;2023-02-12T01:34:34;35.53;;;20.67;;
22160;SDS011;49035;48.812;11.762;2023-02-12T01:37:00;34.30;;;20.73;;
22160;SDS011;49035;48.812;11.762;2023-02-12T01:39:26;40.43;;;21.83;;
22160;SDS011;49035;48.812;11.762;2023-02-12T01:41:52;34.07;;;20.13;;
22160;SDS011;49035;48.812;11.762;2023-02-12T01:44:21;38.57;;;20.80;;
22160;SDS011;49035;48.812;11.762;2023-02-12T01:47:12;34.73;;;19.83;;
22160;SDS011;49035;48.812;11.762;2023-02-12T01:49:39;34.80;;;19.73;;
22160;SDS011;49035;48.812;11.762;2023-02-12T01:52:09;33.50;;;19.90;;
22160;SDS011;49035;48.812;11.762;2023-02-12T01:54:40;35.33;;;20.23;;
22160;SDS011;49035;48.812;11.762;2023-02-12T01:57:07;37.30;;;20.93;;
22160;SDS011;49035;48.812;11.762;2023-02-12T01:59:36;37.50;;;21.87;;
22160;SDS011;49035;48.812;11.762;2023-02-12T02:02:03;36.40;;;20.73;;
22160;SDS011;49035;48.812;11.762;2023-02-12T02:04:31;38.13;;;22.73;;
22160;SDS011;49035;48.812;11.762;2023-02-12T02:07:01;43.07;;;21.73;;
22160;SDS011;49035;48.812;11.762;2023-02-12T02:09:30;39.77;;;22.13;;
22160;SDS011;49035;48.812;11.762;2023-02-12T02:11:58;36.67;;;21.27;;
22160;SDS011;49035;48.812;11.762;2023-02-12T02:14:43;38.37;;;21.93;;
22160;SDS011;49035;48.812;11.762;2023-02-12T02:17:23;35.37;;;21.03;;
22160;SDS011;49035;48.812;11.762;2023-02-12T02:32:05;38.90;;;21.60;;
22160;SDS011;49035;48.812;11.762;2023-02-12T02:35:09;39.97;;;21.73;;
22160;SDS011;49035;48.812;11.762;2023-02-12T02:40:31;42.10;;;22.40;;
22160;SDS011;49035;48.812;11.762;2023-02-12T02:43:08;41.00;;;21.23;;
22160;SDS011;49035;48.812;11.762;2023-02-12T02:45:40;40.37;;;22.70;;
22160;SDS011;49035;48.812;11.762;2023-02-12T02:51:02;41.50;;;23.17;;
22160;SDS011;49035;48.812;11.762;2023-02-12T02:53:33;40.20;;;21.80;;
22160;SDS011;49035;48.812;11.762;2023-02-12T02:56:22;39.80;;;22.43;;
22160;SDS011;49035;48.812;11.762;2023-02-12T02:58:53;43.07;;;23.67;;
22160;SDS011;49035;48.812;11.762;2023-02-12T03:03:52;37.30;;;22.47;;
22160;SDS011;49035;48.812;11.762;2023-02-12T03:06:26;42.53;;;21.80;;
22160;SDS011;49035;48.812;11.762;2023-02-12T03:09:05;38.37;;;22.40;;
22160;SDS011;49035;48.812;11.762;2023-02-12T03:11:39;45.00;;;23.60;;
22160;SDS011;49035;48.812;11.762;2023-02-12T03:16:51;43.43;;;24.20;;
22160;SDS011;49035;48.812;11.762;2023-02-12T03:19:24;43.53;;;23.20;;
22160;SDS011;49035;48.812;11.762;2023-02-12T03:24:30;44.53;;;25.07;;
22160;SDS011;49035;48.812;11.762;2023-02-12T03:27:12;48.03;;;24.23;;
22160;SDS011;49035;48.812;11.762;2023-02-12T03:29:46;44.90;;;24.87;;
22160;SDS011;49035;48.812;11.762;2023-02-12T03:35:08;50.67;;;25.83;;
22160;SDS011;49035;48.812;11.762;2023-02-12T03:40:39;50.33;;;26.73;;
22160;SDS011;49035;48.812;11.762;2023-02-12T03:45:44;49.00;;;27.23;;
22160;SDS011;49035;48.812;11.762;2023-02-12T03:51:02;57.47;;;28.03;;
22160;SDS011;49035;48.812;11.762;2023-02-12T03:53:38;49.47;;;27.10;;
22160;SDS011;49035;48.812;11.762;2023-02-12T03:56:06;57.77;;;29.00;;
22160;SDS011;49035;48.812;11.762;2023-02-12T03:58:37;55.80;;;29.40;;
22160;SDS011;49035;48.812;11.762;2023-02-12T04:01:05;55.57;;;28.87;;
22160;SDS011;49035;48.812;11.762;2023-02-12T04:03:31;54.77;;;29.73;;
22160;SDS011;49035;48.812;11.762;2023-02-12T04:05:57;59.80;;;30.13;;
22160;SDS011;49035;48.812;11.762;2023-02-12T04:08:23;55.60;;;28.77;;
22160;SDS011;49035;48.812;11.762;2023-02-12T04:19:39;59.27;;;29.43;;
22160;SDS011;49035;48.812;11.762;2023-02-12T04:24:49;60.73;;;32.13;;
22160;SDS011;49035;48.812;11.762;2023-02-12T04:28:07;61.43;;;31.33;;
22160;SDS011;49035;48.812;11.762;2023-02-12T04:33:06;58.53;;;31.97;;
22160;SDS011;49035;48.812;11.762;2023-02-12T04:35:40;67.00;;;34.07;;
22160;SDS011;49035;48.812;11.762;2023-02-12T04:38:15;63.43;;;33.20;;
22160;SDS011;49035;48.812;11.762;2023-02-12T04:40:56;60.43;;;31.93;;
22160;SDS011;49035;48.812;11.762;2023-02-12T04:43:26;64.73;;;34.87;;
22160;SDS011;49035;48.812;11.762;2023-02-12T04:45:52;65.47;;;32.77;;
22160;SDS011;49035;48.812;11.762;2023-02-12T04:48:18;60.67;;;32.40;;
22160;SDS011;49035;48.812;11.762;2023-02-12T04:50:44;61.93;;;33.33;;
22160;SDS011;49035;48.812;11.762;2023-02-12T04:53:10;65.23;;;34.13;;
22160;SDS011;49035;48.812;11.762;2023-02-12T04:55:36;65.60;;;32.53;;
22160;SDS011;49035;48.812;11.762;2023-02-12T04:58:02;67.83;;;33.97;;
22160;SDS011;49035;48.812;11.762;2023-02-12T05:00:29;63.73;;;31.70;;
22160;SDS011;49035;48.812;11.762;2023-02-12T05:02:54;60.43;;;31.43;;
22160;SDS011;49035;48.812;11.762;2023-02-12T05:05:20;63.27;;;33.47;;
22160;SDS011;49035;48.812;11.762;2023-02-12T05:07:46;65.27;;;34.27;;
22160;SDS011;49035;48.812;11.762;2023-02-12T05:10:12;60.63;;;31.73;;
22160;SDS011;49035;48.812;11.762;2023-02-12T05:12:38;64.50;;;32.97;;
22160;SDS011;49035;48.812;11.762;2023-02-12T05:15:03;60.77;;;32.33;;
22160;SDS011;49035;48.812;11.762;2023-02-12T05:17:29;58.83;;;31.90;;
22160;SDS011;49035;48.812;11.762;2023-02-12T05:19:54;66.90;;;32.43;;
22160;SDS011;49035;48.812;11.762;2023-02-12T05:22:20;67.23;;;33.17;;
22160;SDS011;49035;48.812;11.762;2023-02-12T05:24:46;61.57;;;33.17;;
22160;SDS011;49035;48.812;11.762;2023-02-12T05:27:11;66.50;;;33.97;;
22160;SDS011;49035;48.812;11.762;2023-02-12T05:29:37;68.30;;;35.17;;
22160;SDS011;49035;48.812;11.762;2023-02-12T05:32:03;66.00;;;33.77;;
22160;SDS011;49035;48.812;11.762;2023-02-12T05:34:29;66.70;;;35.17;;
22160;SDS011;49035;48.812;11.762;2023-02-12T05:36:54;66.67;;;34.97;;
22160;SDS011;49035;48.812;11.762;2023-02-12T05:39:20;68.67;;;36.30;;
22160;SDS011;49035;48.812;11.762;2023-02-12T05:41:45;63.37;;;33.27;;
22160;SDS011;49035;48.812;11.762;2023-02-12T05:44:11;69.20;;;34.37;;
22160;SDS011;49035;48.812;11.762;2023-02-12T05:46:39;71.23;;;34.47;;
22160;SDS011;49035;48.812;11.762;2023-02-12T05:49:05;70.50;;;34.83;;
22160;SDS011;49035;48.812;11.762;2023-02-12T05:51:31;63.00;;;33.13;;
22160;SDS011;49035;48.812;11.762;2023-02-12T05:53:58;68.90;;;34.93;;
22160;SDS011;49035;48.812;11.762;2023-02-12T05:56:33;70.47;;;36.43;;
22160;SDS011;49035;48.812;11.762;2023-02-12T05:59:11;71.57;;;35.57;;
22160;SDS011;49035;48.812;11.762;2023-02-12T06:01:40;75.10;;;37.50;;
22160;SDS011;49035;48.812;11.762;2023-02-12T06:04:09;68.70;;;34.40;;
22160;SDS011;49035;48.812;11.762;2023-02-12T06:06:40;71.70;;;36.20;;
22160;SDS011;49035;48.812;11.762;2023-02-12T06:09:07;65.60;;;33.37;;
22160;SDS011;49035;48.812;11.762;2023-02-12T06:11:33;64.70;;;33.47;;
22160;SDS011;49035;48.812;11.762;2023-02-12T06:14:03;74.30;;;37.23;;
22160;SDS011;49035;48.812;11.762;2023-02-12T06:16:30;71.57;;;37.43;;
22160;SDS011;49035;48.812;11.762;2023-02-12T06:18:56;75.90;;;36.37;;
22160;SDS011;49035;48.812;11.762;2023-02-12T06:21:25;73.63;;;36.13;;
22160;SDS011;49035;48.812;11.762;2023-02-12T06:23:52;70.60;;;36.10;;
22160;SDS011;49035;48.812;11.762;2023-02-12T06:26:18;78.93;;;37.17;;
22160;SDS011;49035;48.812;11.762;2023-02-12T06:28:44;80.47;;;37.20;;
22160;SDS011;49035;48.812;11.762;2023-02-12T06:31:29;75.57;;;36.80;;
22160;SDS011;49035;48.812;11.762;2023-02-12T06:33:57;69.20;;;34.27;;
22160;SDS011;49035;48.812;11.762;2023-02-12T06:36:25;72.07;;;36.43;;
22160;SDS011;49035;48.812;11.762;2023-02-12T06:38:51;72.33;;;35.20;;
22160;SDS011;49035;48.812;11.762;2023-02-12T06:41:17;87.07;;;39.17;;
22160;SDS011;49035;48.812;11.762;2023-02-12T06:43:43;74.80;;;36.43;;
22160;SDS011;49035;48.812;11.762;2023-02-12T06:46:09;76.87;;;37.03;;
22160;SDS011;49035;48.812;11.762;2023-02-12T06:48:34;78.47;;;37.57;;
22160;SDS011;49035;48.812;11.762;2023-02-12T06:51:04;76.33;;;37.83;;
22160;SDS011;49035;48.812;11.762;2023-02-12T06:53:31;70.13;;;36.87;;
22160;SDS011;49035;48.812;11.762;2023-02-12T06:55:58;79.43;;;37.93;;
22160;SDS011;49035;48.812;11.762;2023-02-12T06:58:25;77.47;;;37.57;;
22160;SDS011;49035;48.812;11.762;2023-02-12T07:00:51;78.90;;;37.43;;
22160;SDS011;49035;48.812;11.762;2023-02-12T07:03:16;73.00;;;35.30;;
22160;SDS011;49035;48.812;11.762;2023-02-12T07:05:42;82.03;;;38.13;;
22160;SDS011;49035;48.812;11.762;2023-02-12T07:08:07;75.00;;;37.27;;
22160;SDS011;49035;48.812;11.762;2023-02-12T07:10:33;76.67;;;38.70;;
22160;SDS011;49035;48.812;11.762;2023-02-12T07:12:58;74.53;;;37.40;;
22160;SDS011;49035;48.812;11.762;2023-02-12T07:15:24;74.33;;;37.47;;
22160;SDS011;49035;48.812;11.762;2023-02-12T07:17:50;77.60;;;36.73;;
22160;SDS011;49035;48.812;11.762;2023-02-12T07:20:15;74.10;;;36.30;;
22160;SDS011;49035;48.812;11.762;2023-02-12T07:22:41;79.17;;;39.27;;
22160;SDS011;49035;48.812;11.762;2023-02-12T07:25:07;76.97;;;38.03;;
22160;SDS011;49035;48.812;11.762;2023-02-12T07:27:34;80.93;;;39.87;;
22160;SDS011;49035;48.812;11.762;2023-02-12T07:30:01;81.03;;;40.30;;
22160;SDS011;49035;48.812;11.762;2023-02-12T07:32:28;84.70;;;41.73;;
22160;SDS011;49035;48.812;11.762;2023-02-12T07:34:55;79.73;;;39.97;;
22160;SDS011;49035;48.812;11.762;2023-02-12T07:37:20;83.70;;;40.80;;
22160;SDS011;49035;48.812;11.762;2023-02-12T07:39:47;74.27;;;40.17;;
22160;SDS011;49035;48.812;11.762;2023-02-12T07:42:13;88.10;;;40.83;;
22160;SDS011;49035;48.812;11.762;2023-02-12T07:44:39;83.03;;;41.53;;
22160;SDS011;49035;48.812;11.762;2023-02-12T07:47:04;84.57;;;41.47;;
22160;SDS011;49035;48.812;11.762;2023-02-12T07:49:30;85.17;;;41.80;;
22160;SDS011;49035;48.812;11.762;2023-02-12T07:51:56;85.40;;;43.17;;
22160;SDS011;49035;48.812;11.762;2023-02-12T07:54:21;80.60;;;40.27;;
22160;SDS011;49035;48.812;11.762;2023-02-12T07:56:47;89.93;;;43.47;;
22160;SDS011;49035;48.812;11.762;2023-02-12T07:59:14;105.43;;;48.37;;
22160;SDS011;49035;48.812;11.762;2023-02-12T08:01:42;92.53;;;45.33;;
22160;SDS011;49035;48.812;11.762;2023-02-12T08:04:16;99.00;;;45.23;;
22160;SDS011;49035;48.812;11.762;2023-02-12T08:06:45;98.60;;;46.20;;
22160;SDS011;49035;48.812;11.762;2023-02-12T08:09:16;84.57;;;43.30;;
22160;SDS011;49035;48.812;11.762;2023-02-12T08:11:44;92.53;;;42.60;;
22160;SDS011;49035;48.812;11.762;2023-02-12T08:14:11;80.53;;;40.70;;
22160;SDS011;49035;48.812;11.762;2023-02-12T08:16:38;82.87;;;41.27;;
22160;SDS011;49035;48.812;11.762;2023-02-12T08:19:05;87.87;;;42.37;;
22160;SDS011;49035;48.812;11.762;2023-02-12T08:21:31;79.13;;;41.40;;
22160;SDS011;49035;48.812;11.762;2023-02-12T08:23:57;78.80;;;40.20;;
22160;SDS011;49035;48.812;11.762;2023-02-12T08:31:24;75.30;;;38.77;;
22160;SDS011;49035;48.812;11.762;2023-02-12T08:33:52;76.37;;;40.13;;
22160;SDS011;49035;48.812;11.762;2023-02-12T08:36:22;64.13;;;36.30;;
22160;SDS011;49035;48.812;11.762;2023-02-12T08:38:50;67.53;;;36.03;;
22160;SDS011;49035;48.812;11.762;2023-02-12T08:41:17;66.77;;;34.53;;
22160;SDS011;49035;48.812;11.762;2023-02-12T08:43:44;63.97;;;35.67;;
22160;SDS011;49035;48.812;11.762;2023-02-12T08:46:18;62.13;;;33.93;;
22160;SDS011;49035;48.812;11.762;2023-02-12T08:48:45;65.20;;;35.33;;
22160;SDS011;49035;48.812;11.762;2023-02-12T08:53:37;56.77;;;30.07;;
22160;SDS011;49035;48.812;11.762;2023-02-12T08:56:05;54.23;;;30.80;;
22160;SDS011;49035;48.812;11.762;2023-02-12T08:58:32;55.40;;;28.40;;
22160;SDS011;49035;48.812;11.762;2023-02-12T09:00:58;45.60;;;21.20;;
22160;SDS011;49035;48.812;11.762;2023-02-12T09:03:24;43.63;;;21.40;;
22160;SDS011;49035;48.812;11.762;2023-02-12T09:05:50;41.70;;;20.43;;
22160;SDS011;49035;48.812;11.762;2023-02-12T09:08:15;35.80;;;18.07;;
22160;SDS011;49035;48.812;11.762;2023-02-12T09:10:42;39.43;;;20.37;;
22160;SDS011;49035;48.812;11.762;2023-02-12T09:13:08;44.07;;;19.53;;
22160;SDS011;49035;48.812;11.762;2023-02-12T09:15:39;43.20;;;20.13;;
22160;SDS011;49035;48.812;11.762;2023-02-12T09:18:09;44.20;;;21.60;;
22160;SDS011;49035;48.812;11.762;2023-02-12T09:20:36;43.03;;;21.60;;
22160;SDS011;49035;48.812;11.762;2023-02-12T09:23:04;49.20;;;21.57;;
22160;SDS011;49035;48.812;11.762;2023-02-12T09:25:33;42.00;;;19.60;;
22160;SDS011;49035;48.812;11.762;2023-02-12T09:28:03;50.17;;;22.70;;
22160;SDS011;49035;48.812;11.762;2023-02-12T09:30:28;49.07;;;23.20;;
22160;SDS011;49035;48.812;11.762;2023-02-12T09:32:54;46.70;;;21.53;;
22160;SDS011;49035;48.812;11.762;2023-02-12T09:35:21;49.10;;;22.27;;
22160;SDS011;49035;48.812;11.762;2023-02-12T09:37:47;47.37;;;21.10;;
22160;SDS011;49035;48.812;11.762;2023-02-12T09:40:17;46.77;;;22.27;;
22160;SDS011;49035;48.812;11.762;2023-02-12T09:48:59;48.47;;;22.53;;
22160;SDS011;49035;48.812;11.762;2023-02-12T09:51:34;43.37;;;21.40;;
22160;SDS011;49035;48.812;11.762;2023-02-12T09:54:03;43.43;;;21.57;;
22160;SDS011;49035;48.812;11.762;2023-02-12T09:56:31;41.30;;;20.80;;
22160;SDS011;49035;48.812;11.762;2023-02-12T09:58:59;37.60;;;19.43;;
22160;SDS011;49035;48.812;11.762;2023-02-12T10:01:28;38.87;;;19.90;;
22160;SDS011;49035;48.812;11.762;2023-02-12T10:03:54;40.33;;;20.70;;
22160;SDS011;49035;48.812;11.762;2023-02-12T10:08:58;42.17;;;20.47;;
22160;SDS011;49035;48.812;11.762;2023-02-12T10:14:28;35.78;;;19.50;;
22160;SDS011;49035;48.812;11.762;2023-02-12T10:25:21;40.93;;;19.73;;
22160;SDS011;49035;48.812;11.762;2023-02-12T10:28:01;37.70;;;19.87;;
22160;SDS011;49035;48.812;11.762;2023-02-12T10:30:56;37.37;;;18.67;;
22160;SDS011;49035;48.812;11.762;2023-02-12T10:36:02;37.47;;;19.20;;
22160;SDS011;49035;48.812;11.762;2023-02-12T10:38:30;40.10;;;19.13;;
22160;SDS011;49035;48.812;11.762;2023-02-12T10:40:59;40.20;;;19.83;;
22160;SDS011;49035;48.812;11.762;2023-02-12T10:43:25;40.50;;;20.10;;
22160;SDS011;49035;48.812;11.762;2023-02-12T10:45:51;35.73;;;19.43;;
22160;SDS011;49035;48.812;11.762;2023-02-12T10:48:25;39.40;;;19.40;;
22160;SDS011;49035;48.812;11.762;2023-02-12T10:53:34;38.50;;;19.52;;
22160;SDS011;49035;48.812;11.762;2023-02-12T11:01:30;33.05;;;17.00;;
22160;SDS011;49035;48.812;11.762;2023-02-12T11:06:58;32.33;;;17.33;;
22160;SDS011;49035;48.812;11.762;2023-02-12T11:09:30;31.50;;;17.93;;
22160;SDS011;49035;48.812;11.762;2023-02-12T11:12:00;34.00;;;17.13;;
22160;SDS011;49035;48.812;11.762;2023-02-12T11:14:26;32.05;;;17.10;;
22160;SDS011;49035;48.812;11.762;2023-02-12T11:16:56;29.73;;;17.17;;
22160;SDS011;49035;48.812;11.762;2023-02-12T11:19:25;35.42;;;18.23;;
22160;SDS011;49035;48.812;11.762;2023-02-12T11:22:06;34.42;;;18.48;;
22160;SDS011;49035;48.812;11.762;2023-02-12T11:24:42;31.13;;;17.00;;
22160;SDS011;49035;48.812;11.762;2023-02-12T11:29:37;36.13;;;17.77;;
22160;SDS011;49035;48.812;11.762;2023-02-12T11:32:04;34.92;;;18.42;;
22160;SDS011;49035;48.812;11.762;2023-02-12T11:34:32;31.92;;;18.45;;
22160;SDS011;49035;48.812;11.762;2023-02-12T11:36:59;33.33;;;17.23;;
22160;SDS011;49035;48.812;11.762;2023-02-12T11:41:59;32.42;;;17.70;;
22160;SDS011;49035;48.812;11.762;2023-02-12T11:44:36;33.70;;;17.63;;
22160;SDS011;49035;48.812;11.762;2023-02-12T11:47:05;32.80;;;16.70;;
22160;SDS011;49035;48.812;11.762;2023-02-12T11:49:43;29.95;;;16.85;;
22160;SDS011;49035;48.812;11.762;2023-02-12T11:52:31;33.47;;;19.00;;
22160;SDS011;49035;48.812;11.762;2023-02-12T11:54:59;35.33;;;19.30;;
22160;SDS011;49035;48.812;11.762;2023-02-12T12:00:57;34.60;;;17.87;;
22160;SDS011;49035;48.812;11.762;2023-02-12T12:03:03;37.08;;;19.42;;
22160;SDS011;49035;48.812;11.762;2023-02-12T12:05:47;38.13;;;19.15;;
22160;SDS011;49035;48.812;11.762;2023-02-12T12:10:49;40.40;;;18.73;;
22160;SDS011;49035;48.812;11.762;2023-02-12T12:13:50;34.92;;;18.08;;
22160;SDS011;49035;48.812;11.762;2023-02-12T12:16:23;36.35;;;18.80;;
22160;SDS011;49035;48.812;11.762;2023-02-12T12:19:14;38.78;;;19.95;;
22160;SDS011;49035;48.812;11.762;2023-02-12T12:23:06;38.17;;;18.65;;
22160;SDS011;49035;48.812;11.762;2023-02-12T12:33:39;35.33;;;19.10;;
22160;SDS011;49035;48.812;11.762;2023-02-12T12:49:51;32.50;;;16.85;;
22160;SDS011;49035;48.812;11.762;2023-02-12T12:52:37;29.20;;;16.48;;
22160;SDS011;49035;48.812;11.762;2023-02-12T12:55:18;29.13;;;17.00;;
22160;SDS011;49035;48.812;11.762;2023-02-12T12:58:07;32.15;;;17.58;;
22160;SDS011;49035;48.812;11.762;2023-02-12T13:01:15;36.22;;;18.45;;
22160;SDS011;49035;48.812;11.762;2023-02-12T13:03:51;29.02;;;16.20;;
22160;SDS011;49035;48.812;11.762;2023-02-12T13:06:41;31.73;;;16.67;;
22160;SDS011;49035;48.812;11.762;2023-02-12T13:09:23;34.65;;;17.95;;
22160;SDS011;49035;48.812;11.762;2023-02-12T13:12:10;29.33;;;16.10;;
22160;SDS011;49035;48.812;11.762;2023-02-12T13:14:46;29.92;;;17.27;;
22160;SDS011;49035;48.812;11.762;2023-02-12T13:17:21;33.05;;;18.00;;
22160;SDS011;49035;48.812;11.762;2023-02-12T13:28:23;32.70;;;18.08;;
22160;SDS011;49035;48.812;11.762;2023-02-12T13:30:58;32.63;;;17.50;;
22160;SDS011;49035;48.812;11.762;2023-02-12T13:33:40;36.05;;;18.33;;
22160;SDS011;49035;48.812;11.762;2023-02-12T13:36:09;32.25;;;18.45;;
22160;SDS011;49035;48.812;11.762;2023-02-12T13:38:39;32.58;;;17.05;;
22160;SDS011;49035;48.812;11.762;2023-02-12T13:41:20;30.65;;;17.55;;
22160;SDS011;49035;48.812;11.762;2023-02-12T13:46:38;30.45;;;16.58;;
22160;SDS011;49035;48.812;11.762;2023-02-12T13:51:49;30.47;;;16.83;;
22160;SDS011;49035;48.812;11.762;2023-02-12T13:57:20;28.13;;;16.52;;
22160;SDS011;49035;48.812;11.762;2023-02-12T13:59:47;31.80;;;16.70;;
22160;SDS011;49035;48.812;11.762;2023-02-12T14:05:31;29.45;;;17.13;;
22160;SDS011;49035;48.812;11.762;2023-02-12T14:07:52;33.03;;;17.75;;
22160;SDS011;49035;48.812;11.762;2023-02-12T14:12:52;30.83;;;16.33;;
22160;SDS011;49035;48.812;11.762;2023-02-12T14:17:54;30.53;;;16.73;;
22160;SDS011;49035;48.812;11.762;2023-02-12T14:20:28;28.52;;;16.20;;
22160;SDS011;49035;48.812;11.762;2023-02-12T14:23:01;34.33;;;18.70;;
22160;SDS011;49035;48.812;11.762;2023-02-12T14:25:45;31.73;;;16.47;;
22160;SDS011;49035;48.812;11.762;2023-02-12T14:28:40;31.50;;;16.57;;
22160;SDS011;49035;48.812;11.762;2023-02-12T14:31:36;29.33;;;15.40;;
22160;SDS011;49035;48.812;11.762;2023-02-12T14:41:41;28.10;;;16.47;;
22160;SDS011;49035;48.812;11.762;2023-02-12T14:49:18;28.95;;;16.58;;
22160;SDS011;49035;48.812;11.762;2023-02-12T14:54:31;33.20;;;16.67;;
22160;SDS011;49035;48.812;11.762;2023-02-12T14:57:04;33.40;;;18.13;;
22160;SDS011;49035;48.812;11.762;2023-02-12T14:59:39;32.37;;;17.77;;
22160;SDS011;49035;48.812;11.762;2023-02-12T15:02:07;32.03;;;16.77;;
22160;SDS011;49035;48.812;11.762;2023-02-12T15:04:38;35.70;;;18.27;;
22160;SDS011;49035;48.812;11.762;2023-02-12T15:07:07;31.03;;;17.73;;
22160;SDS011;49035;48.812;11.762;2023-02-12T15:09:50;37.23;;;18.37;;
22160;SDS011;49035;48.812;11.762;2023-02-12T15:14:57;40.73;;;18.77;;
22160;SDS011;49035;48.812;11.762;2023-02-12T15:17:36;36.23;;;19.13;;
22160;SDS011;49035;48.812;11.762;2023-02-12T15:20:23;36.00;;;19.07;;
22160;SDS011;49035;48.812;11.762;2023-02-12T15:22:56;35.10;;;18.13;;
22160;SDS011;49035;48.812;11.762;2023-02-12T15:28:14;32.00;;;17.97;;
22160;SDS011;49035;48.812;11.762;2023-02-12T15:30:45;31.17;;;17.47;;
22160;SDS011;49035;48.812;11.762;2023-02-12T15:33:15;29.03;;;17.23;;
22160;SDS011;49035;48.812;11.762;2023-02-12T15:35:50;34.03;;;17.67;;
22160;SDS011;49035;48.812;11.762;2023-02-12T15:38:20;31.07;;;15.83;;
22160;SDS011;49035;48.812;11.762;2023-02-12T15:40:54;29.20;;;16.37;;
22160;SDS011;49035;48.812;11.762;2023-02-12T15:43:24;29.20;;;15.53;;
22160;SDS011;49035;48.812;11.762;2023-02-12T15:45:51;32.83;;;16.03;;
22160;SDS011;49035;48.812;11.762;2023-02-12T15:48:18;30.67;;;16.40;;
22160;SDS011;49035;48.812;11.762;2023-02-12T15:51:07;33.20;;;16.53;;
22160;SDS011;49035;48.812;11.762;2023-02-12T15:53:54;29.67;;;14.93;;
22160;SDS011;49035;48.812;11.762;2023-02-12T15:56:22;29.40;;;14.27;;
22160;SDS011;49035;48.812;11.762;2023-02-12T15:58:56;33.07;;;14.77;;
22160;SDS011;49035;48.812;11.762;2023-02-12T16:01:28;26.97;;;14.27;;
22160;SDS011;49035;48.812;11.762;2023-02-12T16:04:00;31.57;;;16.43;;
22160;SDS011;49035;48.812;11.762;2023-02-12T16:06:30;29.17;;;14.57;;
22160;SDS011;49035;48.812;11.762;2023-02-12T16:09:08;30.67;;;15.10;;
22160;SDS011;49035;48.812;11.762;2023-02-12T16:11:43;31.00;;;15.60;;
22160;SDS011;49035;48.812;11.762;2023-02-12T16:14:27;28.07;;;15.07;;
22160;SDS011;49035;48.812;11.762;2023-02-12T16:22:40;35.03;;;16.20;;
22160;SDS011;49035;48.812;11.762;2023-02-12T16:27:54;32.53;;;15.87;;
22160;SDS011;49035;48.812;11.762;2023-02-12T16:30:32;40.83;;;16.80;;
22160;SDS011;49035;48.812;11.762;2023-02-12T16:33:03;34.40;;;16.23;;
22160;SDS011;49035;48.812;11.762;2023-02-12T16:35:30;35.07;;;15.57;;
22160;SDS011;49035;48.812;11.762;2023-02-12T16:38:02;33.10;;;16.57;;
22160;SDS011;49035;48.812;11.762;2023-02-12T16:40:32;35.83;;;17.73;;
22160;SDS011;49035;48.812;11.762;2023-02-12T16:43:00;30.30;;;15.37;;
22160;SDS011;49035;48.812;11.762;2023-02-12T16:45:46;35.60;;;17.50;;
22160;SDS011;49035;48.812;11.762;2023-02-12T16:48:19;33.53;;;16.97;;
22160;SDS011;49035;48.812;11.762;2023-02-12T16:50:50;36.27;;;15.97;;
22160;SDS011;49035;48.812;11.762;2023-02-12T16:55:58;39.23;;;18.43;;
22160;SDS011;49035;48.812;11.762;2023-02-12T16:58:24;29.60;;;15.03;;
22160;SDS011;49035;48.812;11.762;2023-02-12T17:00:51;37.17;;;17.70;;
22160;SDS011;49035;48.812;11.762;2023-02-12T17:03:18;30.40;;;14.07;;
22160;SDS011;49035;48.812;11.762;2023-02-12T17:05:44;35.83;;;16.57;;
22160;SDS011;49035;48.812;11.762;2023-02-12T17:08:17;33.20;;;14.87;;
22160;SDS011;49035;48.812;11.762;2023-02-12T17:10:45;30.90;;;14.37;;
22160;SDS011;49035;48.812;11.762;2023-02-12T17:13:12;37.43;;;16.17;;
22160;SDS011;49035;48.812;11.762;2023-02-12T17:15:44;40.83;;;16.10;;
22160;SDS011;49035;48.812;11.762;2023-02-12T17:18:20;34.17;;;15.47;;
22160;SDS011;49035;48.812;11.762;2023-02-12T17:20:49;30.50;;;14.07;;
22160;SDS011;49035;48.812;11.762;2023-02-12T17:23:20;32.73;;;13.87;;
22160;SDS011;49035;48.812;11.762;2023-02-12T17:25:46;30.53;;;13.53;;
22160;SDS011;49035;48.812;11.762;2023-02-12T17:28:12;31.97;;;16.47;;
22160;SDS011;49035;48.812;11.762;2023-02-12T17:30:38;44.87;;;18.70;;